Aérodrome :
LOGIN :

S'inscrire | Disclaimer

   EN    FR    IT 

 










Légende :    VFR   VFR Marginal   IFR   IFR Intensif   IFR Très Intensif
Visi : 
Plafond : 
>= 8 km
>= 3000ft
5 à 8 km
1000 à 3000 ft
1500m à 5 km
500 à 1000 ft
800 à 1500m
200 à 500 ft
< 800m
< 200 ft
Symboles :   Orages  Brouillard  Fortes neiges  Fortes précipitations  Vent > 20 kt
SIGMETs :   Divers  Orages  Givrage  Turbulence  Onde Orograph.  Cendres Volcan.







- Altitude de l'aérodrome : 15 ft
- Code IATA : BHD
- Voir les cartes d'approche


EGAC - George Best Belfast City

DERNIER METAR :
  • 140950Z AUTO 23011KT 200V270 9999 FEW017/// 18/15 Q1012

METARs EXPIRÉS :
  • 140920Z AUTO 24010KT 9999 BKN015/// 18/15 Q1012
  • 140850Z AUTO 22010KT 9999 BKN013/// OVC041/// 17/15 Q1012
  • 140820Z AUTO 22008KT 9999 BKN011/// OVC015/// 17/15 Q1012
  • 140750Z AUTO 21008KT 9999 SCT009/// BKN014/// BKN022/// 16/15 Q1012
  • 140720Z AUTO 21008KT 7000 -RA SCT008/// BKN013/// BKN020/// 16/15 Q1012

TAF TAF EGAC
Valide du 14 à 09h jusqu'au 14 à 18h UTC


140759Z 1409/1418 23010KT 9999 FEW008 BKN018
TEMPO 1409/1418 7000 -RADZ BKN012
PROB30
TEMPO 1409/1411 4000 RADZ BKN007
ATIS : +44 02890 935 124
Pas de NOTAMs connus pour ce terrain.
1 SIGMET publié pour la FIR Scottish (EGPX) :
 
Orages noyés dans la masse
EGPX SIGMET 01 VALID 140720/141000 EGRR
EGPX SCOTTISH FIR EMBD TS FCST WI N5839 W00645 - N5710 W00645 - N5710 W00736 - N5839 W00736 - N5839 W00645 TOP FL260 MOV NE 35KT NC=



MET'MAP, la Météo Aéronautique d'un coup d'oeil ! - Copyright ORBIFLY Décembre 2007 - Disclaimer

ORBIFLY MET'MAP TEAM :

Programmation & Développement : Alexandra Zaïnal
Conception & Développement : Baudouin d'Aumeries
Co-Programmation & Développement : Marc-Olivier Méhu
Soutien technique & logistique : Manuel Goepfert

Contact : metmap@orbifly.com




SOURCES & CREDITS :

   NOAA